Time;durP1;ratioP1;P1;durP2;ratioP2;P2;SDS_P1;SDS_P2;PMS_P1;PMS_P2;Temp;Humidity;BMP_temperature;BMP_pressure;BME280_temperature;BME280_humidity;BME280_pressure;Samples;Min_cycle;Max_cycle;Signal;HPM_P1;HPM_P2
2021/07/15 00:01:22;;;;;;;6.83;3.83;;;;;;;20.73;76.09;96299.91;127560;1093;22819;-84
2021/07/15 00:03:53;;;;;;;6.13;3.78;;;;;;;20.79;76.04;96308.48;127548;1093;22783;-84
2021/07/15 00:06:25;;;;;;;5.73;3.83;;;;;;;20.94;75.97;96316.53;127573;1096;26764;-83
2021/07/15 00:08:57;;;;;;;6.50;3.75;;;;;;;20.99;75.70;96320.89;127496;1093;22802;-83
2021/07/15 00:11:30;;;;;;;7.65;3.88;;;;;;;20.95;75.75;96331.56;127205;1093;208909;-83
2021/07/15 00:14:01;;;;;;;5.15;4.20;;;;;;;21.12;76.29;96365.45;127901;1092;22805;-85
2021/07/15 00:16:33;;;;;;;5.93;4.03;;;;;;;21.09;75.56;96382.31;127916;1093;22813;-84
2021/07/15 00:19:09;;;;;;;9.80;5.28;;;;;;;20.93;75.90;96385.04;127916;1093;28059;-83
2021/07/15 00:21:41;;;;;;;6.83;4.50;;;;;;;20.85;76.35;96402.19;127950;1093;25919;-85
2021/07/15 00:24:12;;;;;;;7.68;4.80;;;;;;;20.84;76.78;96421.41;127988;1093;40860;-88
2021/07/15 00:26:43;;;;;;;9.95;5.28;;;;;;;20.67;76.61;96442.16;127957;1092;22889;-83
2021/07/15 00:29:15;;;;;;;8.30;4.77;;;;;;;20.61;77.62;96456.23;127891;1093;23332;-83
2021/07/15 00:31:47;;;;;;;7.80;4.03;;;;;;;20.56;77.93;96484.22;127897;1093;26366;-83
2021/07/15 00:34:18;;;;;;;7.45;4.30;;;;;;;20.39;78.12;96497.95;127942;1092;22813;-85
2021/07/15 00:36:49;;;;;;;7.53;3.95;;;;;;;20.28;78.36;96502.28;127945;1093;25243;-84
2021/07/15 00:39:20;;;;;;;5.90;3.93;;;;;;;20.16;79.40;96462.73;127880;1093;131464;-82
2021/07/15 00:41:52;;;;;;;6.20;3.80;;;;;;;20.00;80.08;96435.78;128049;1093;23648;-81
2021/07/15 00:44:23;;;;;;;6.98;4.05;;;;;;;19.95;80.02;96376.03;128051;1093;31919;-81
2021/07/15 00:46:54;;;;;;;7.53;3.90;;;;;;;19.95;79.54;96373.34;127845;1093;23044;-83
2021/07/15 00:49:25;;;;;;;5.85;3.63;;;;;;;19.96;79.79;96432.19;127973;1093;22789;-83
2021/07/15 00:51:57;;;;;;;6.88;4.05;;;;;;;19.89;80.59;96397.03;127982;1093;22803;-82
2021/07/15 00:54:28;;;;;;;6.35;3.70;;;;;;;19.78;80.98;96363.67;127953;1093;22789;-82
2021/07/15 00:56:59;;;;;;;6.60;3.08;;;;;;;19.75;81.29;96345.53;127981;1093;26271;-83
2021/07/15 00:59:31;;;;;;;6.10;3.85;;;;;;;19.78;80.84;96347.53;127975;1093;22807;-83
2021/07/15 01:02:02;;;;;;;4.83;3.53;;;;;;;19.86;80.48;96343.92;127921;1093;22811;-82
2021/07/15 01:04:35;;;;;;;5.67;3.87;;;;;;;19.92;80.29;96334.45;127912;1093;22824;-83
2021/07/15 01:07:06;;;;;;;5.40;3.53;;;;;;;20.04;80.20;96342.46;127913;1092;23806;-84
2021/07/15 01:09:38;;;;;;;5.60;3.45;;;;;;;19.93;79.50;96346.00;127924;1093;22812;-85
2021/07/15 01:12:27;;;;;;;7.53;3.95;;;;;;;19.88;80.01;96360.49;127892;1093;22796;-83
2021/07/15 01:15:10;;;;;;;7.25;4.35;;;;;;;19.91;80.60;96378.63;127907;1092;22796;-83
2021/07/15 01:17:55;;;;;;;5.80;3.80;;;;;;;20.02;80.85;96378.92;127926;1093;24125;-85
2021/07/15 01:21:02;;;;;;;6.03;3.95;;;;;;;20.19;81.03;96410.12;127945;1093;23051;-86
2021/07/15 01:24:08;;;;;;;6.67;4.20;;;;;;;20.34;80.69;96396.67;127648;1093;22925;-83
2021/07/15 01:27:17;;;;;;;7.08;3.80;;;;;;;20.36;80.45;96394.41;127798;1092;24456;-84
2021/07/15 01:30:06;;;;;;;5.20;4.00;;;;;;;20.18;80.50;96420.10;127905;1093;22774;-85
2021/07/15 01:32:48;;;;;;;6.50;3.95;;;;;;;20.20;80.59;96427.83;127969;1093;27655;-84
2021/07/15 01:35:23;;;;;;;7.03;4.25;;;;;;;20.17;80.66;96399.70;127916;1092;26133;-83
2021/07/15 01:37:58;;;;;;;6.58;3.85;;;;;;;20.17;81.15;96380.86;127962;1093;25146;-86
2021/07/15 01:40:36;;;;;;;9.15;5.10;;;;;;;19.96;81.36;96361.45;127938;1092;40812;-85
2021/07/15 01:43:12;;;;;;;9.30;5.08;;;;;;;19.84;81.39;96375.73;127905;1093;24438;-83
2021/07/15 01:45:45;;;;;;;6.50;4.48;;;;;;;19.92;81.67;96347.13;127916;1093;23289;-85
2021/07/15 01:48:17;;;;;;;7.70;4.68;;;;;;;20.00;81.70;96335.44;127921;1092;22801;-87
2021/07/15 01:50:50;;;;;;;8.68;4.70;;;;;;;20.10;81.50;96316.84;128013;1092;22817;-84
2021/07/15 01:53:21;;;;;;;9.50;4.20;;;;;;;20.14;81.18;96336.58;128023;1093;24394;-84
2021/07/15 01:55:56;;;;;;;11.28;4.33;;;;;;;20.14;81.44;96317.73;128032;1092;25868;-85
2021/07/15 01:58:31;;;;;;;8.98;4.30;;;;;;;20.26;81.02;96324.92;127970;1093;23531;-86
2021/07/15 02:01:04;;;;;;;8.70;4.65;;;;;;;20.09;80.72;96328.74;127992;1092;23800;-83
2021/07/15 02:03:39;;;;;;;9.68;4.45;;;;;;;19.88;80.57;96344.34;128010;1091;22816;-83
2021/07/15 02:06:11;;;;;;;7.38;4.85;;;;;;;19.73;81.40;96335.12;127999;1093;22823;-84
2021/07/15 02:08:44;;;;;;;9.80;4.55;;;;;;;19.83;82.17;96337.29;127929;1093;22829;-84
2021/07/15 02:11:16;;;;;;;11.30;4.63;;;;;;;19.92;82.32;96339.84;127948;1093;24840;-85
2021/07/15 02:13:49;;;;;;;8.47;4.40;;;;;;;19.97;82.07;96328.81;127970;1093;22795;-85
2021/07/15 02:16:21;;;;;;;9.30;4.73;;;;;;;20.05;82.22;96325.19;127959;1092;26277;-86
2021/07/15 02:18:54;;;;;;;8.85;4.98;;;;;;;20.16;82.07;96320.08;127952;1093;26355;-85
2021/07/15 02:21:25;;;;;;;8.28;4.83;;;;;;;20.20;82.40;96320.94;127986;1092;22829;-83
2021/07/15 02:23:58;;;;;;;5.67;4.20;;;;;;;20.20;81.98;96337.09;128006;1093;22828;-85
2021/07/15 02:26:30;;;;;;;10.68;4.75;;;;;;;20.15;82.10;96358.89;127896;1093;26648;-84
2021/07/15 02:29:02;;;;;;;8.25;4.30;;;;;;;20.18;82.10;96376.25;127904;1093;22793;-84
2021/07/15 02:31:37;;;;;;;7.55;4.90;;;;;;;20.30;82.15;96384.27;127957;1093;22783;-83
2021/07/15 02:34:15;;;;;;;11.00;4.45;;;;;;;20.38;82.10;96380.60;127934;1093;22809;-82
2021/07/15 02:36:48;;;;;;;6.98;4.68;;;;;;;20.29;82.09;96382.70;127926;1093;22793;-86
2021/07/15 02:39:19;;;;;;;10.03;4.97;;;;;;;20.05;82.05;96383.61;127899;1093;22936;-83
2021/07/15 02:41:51;;;;;;;9.25;4.93;;;;;;;19.99;82.73;96380.40;127925;1093;22823;-85
2021/07/15 02:44:23;;;;;;;10.05;5.08;;;;;;;19.87;82.67;96358.93;127954;1093;27542;-85
2021/07/15 02:46:54;;;;;;;9.33;4.38;;;;;;;19.88;82.72;96384.70;127925;1093;30259;-84
2021/07/15 02:49:26;;;;;;;7.60;4.73;;;;;;;19.92;82.87;96396.34;127991;1093;22825;-87
2021/07/15 02:51:57;;;;;;;7.48;4.65;;;;;;;19.98;82.82;96388.79;127925;1093;22794;-84
2021/07/15 02:54:29;;;;;;;8.65;5.05;;;;;;;19.99;83.16;96382.30;127936;1092;24636;-83
2021/07/15 02:57:10;;;;;;;10.78;5.08;;;;;;;20.01;83.03;96370.06;127926;1093;27128;-84
2021/07/15 02:59:47;;;;;;;8.43;4.88;;;;;;;20.04;82.91;96355.14;127961;1093;22804;-83
2021/07/15 03:02:22;;;;;;;8.35;5.03;;;;;;;19.96;82.41;96347.99;127977;1093;22799;-87
2021/07/15 03:05:01;;;;;;;10.13;5.63;;;;;;;19.84;82.23;96405.33;128039;1093;24090;-84
2021/07/15 03:07:38;;;;;;;7.18;4.53;;;;;;;19.74;83.06;96519.59;128001;1093;23013;-83
2021/07/15 03:10:11;;;;;;;10.50;5.45;;;;;;;19.67;83.56;96470.95;127950;1093;26049;-85
2021/07/15 03:16:27;;;;;;;9.58;5.23;;;;;;;19.80;83.49;96303.02;128083;1093;28685;-85
2021/07/15 03:19:03;;;;;;;8.93;5.18;;;;;;;19.79;82.82;96322.97;127938;1093;24445;-84
2021/07/15 03:21:35;;;;;;;9.17;4.70;;;;;;;19.69;82.90;96325.38;127905;1093;22819;-84
2021/07/15 03:24:10;;;;;;;10.48;5.20;;;;;;;19.64;82.76;96347.14;127943;1093;27021;-85
2021/07/15 03:26:44;;;;;;;8.23;5.35;;;;;;;19.46;83.09;96346.63;127892;1092;23814;-87
2021/07/15 03:29:17;;;;;;;7.83;5.48;;;;;;;19.37;83.98;96336.00;127938;1093;25119;-84
2021/07/15 03:31:49;;;;;;;8.95;5.70;;;;;;;19.48;84.61;96339.00;127959;1090;22829;-85
2021/07/15 03:34:21;;;;;;;8.45;5.38;;;;;;;19.59;84.66;96337.42;127909;1093;23070;-86
2021/07/15 03:36:53;;;;;;;8.80;5.93;;;;;;;19.61;84.25;96337.08;127941;1093;26299;-86
2021/07/15 03:39:26;;;;;;;7.13;5.95;;;;;;;19.54;84.28;96341.12;128003;1093;23509;-85
2021/07/15 03:41:58;;;;;;;11.20;5.63;;;;;;;19.53;84.59;96342.22;127925;1093;22820;-81
2021/07/15 03:44:31;;;;;;;12.00;6.08;;;;;;;19.68;84.93;96337.26;127929;1093;24337;-83
2021/07/15 03:47:02;;;;;;;8.30;5.53;;;;;;;19.81;84.79;96336.08;127963;1093;50483;-85
2021/07/15 03:49:35;;;;;;;8.25;5.33;;;;;;;19.92;84.41;96321.00;127949;1093;23117;-88
2021/07/15 03:52:10;;;;;;;10.15;5.30;;;;;;;19.97;84.09;96318.05;127932;1092;22794;-84
2021/07/15 03:54:43;;;;;;;11.95;5.65;;;;;;;20.04;84.00;96322.84;127937;1093;22807;-88
2021/07/15 03:57:17;;;;;;;9.23;5.45;;;;;;;20.11;83.67;96339.16;127943;1093;22946;-86
2021/07/15 03:59:52;;;;;;;12.13;5.28;;;;;;;20.14;83.32;96350.03;127987;1093;22808;-84
2021/07/15 04:02:27;;;;;;;9.00;5.08;;;;;;;20.12;82.78;96335.34;128004;1093;22786;-88
2021/07/15 04:05:01;;;;;;;8.60;5.53;;;;;;;20.17;83.55;96332.41;128030;1093;24651;-85
2021/07/15 04:07:34;;;;;;;7.58;4.55;;;;;;;20.13;83.02;96335.02;127942;1093;22874;-84
2021/07/15 04:10:07;;;;;;;8.93;4.88;;;;;;;20.18;83.30;96374.34;127942;1093;22784;-86
2021/07/15 04:12:41;;;;;;;9.40;5.00;;;;;;;20.21;82.99;96387.10;127866;1093;24711;-88
2021/07/15 04:15:16;;;;;;;10.90;5.00;;;;;;;20.08;83.42;96334.47;127894;1093;22787;-85
2021/07/15 04:17:53;;;;;;;8.47;5.10;;;;;;;20.08;84.04;96327.18;127901;1093;22793;-85
2021/07/15 04:20:26;;;;;;;9.10;5.43;;;;;;;20.22;83.76;96307.91;127969;1093;27418;-89
2021/07/15 04:23:01;;;;;;;8.70;5.63;;;;;;;20.30;83.65;96314.27;127884;1093;48596;-84
2021/07/15 04:25:33;;;;;;;11.55;5.48;;;;;;;20.33;83.28;96308.17;127884;1093;22857;-84
2021/07/15 04:28:07;;;;;;;9.30;5.78;;;;;;;20.46;82.90;96309.68;127887;1093;22839;-89
2021/07/15 04:30:39;;;;;;;8.48;5.08;;;;;;;20.51;82.95;96312.09;127912;1093;24452;-86
2021/07/15 04:33:12;;;;;;;9.03;5.10;;;;;;;20.66;82.83;96313.98;127878;1093;26804;-88
2021/07/15 04:35:44;;;;;;;9.33;5.10;;;;;;;20.72;82.05;96301.83;127938;1093;27128;-85
2021/07/15 04:38:17;;;;;;;7.35;4.78;;;;;;;20.57;81.94;96309.94;127914;1093;22793;-89
2021/07/15 04:40:50;;;;;;;10.13;4.48;;;;;;;20.54;81.71;96302.53;127852;1093;23525;-86
2021/07/15 04:43:24;;;;;;;7.45;4.33;;;;;;;20.66;82.16;96315.89;127907;1093;32018;-88
2021/07/15 04:45:56;;;;;;;10.08;4.63;;;;;;;20.96;82.35;96321.56;127955;1093;26890;-88
2021/07/15 04:48:28;;;;;;;9.10;4.45;;;;;;;21.21;80.93;96316.72;127665;1093;23091;-84
2021/07/15 04:51:01;;;;;;;7.78;4.93;;;;;;;21.29;81.80;96321.16;127827;1093;22786;-84
2021/07/15 04:53:34;;;;;;;10.18;4.93;;;;;;;21.18;80.56;96330.91;127876;1093;26264;-84
2021/07/15 04:56:07;;;;;;;7.38;4.28;;;;;;;21.17;80.98;96335.52;127830;1093;22819;-86
2021/07/15 04:58:38;;;;;;;8.55;4.65;;;;;;;21.28;80.74;96330.39;127853;1093;22816;-89
2021/07/15 05:01:10;;;;;;;8.65;4.58;;;;;;;21.23;80.85;96341.41;127924;1092;22795;-87
2021/07/15 05:03:41;;;;;;;7.00;4.85;;;;;;;21.10;81.18;96367.70;127913;1093;22787;-89
2021/07/15 05:06:14;;;;;;;8.35;4.93;;;;;;;20.94;81.47;96401.98;127909;1093;22783;-88
2021/07/15 05:08:46;;;;;;;9.13;5.60;;;;;;;20.74;81.85;96412.70;127905;1093;23161;-88
2021/07/15 05:11:17;;;;;;;7.45;5.33;;;;;;;20.56;82.68;96408.02;127879;1093;23629;-86
2021/07/15 05:13:49;;;;;;;8.33;4.63;;;;;;;20.42;82.45;96403.06;127890;1093;22829;-86
2021/07/15 05:16:23;;;;;;;8.75;5.33;;;;;;;20.34;82.35;96393.20;127858;1093;25324;-86
2021/07/15 05:18:54;;;;;;;9.95;5.40;;;;;;;20.33;82.73;96375.48;127926;1092;24439;-88
2021/07/15 05:21:26;;;;;;;9.10;5.60;;;;;;;20.36;82.66;96393.63;127935;1091;22777;-85
2021/07/15 05:23:57;;;;;;;9.05;4.73;;;;;;;20.30;82.57;96392.34;127930;1093;30474;-87
2021/07/15 05:26:28;;;;;;;8.35;5.58;;;;;;;20.20;82.88;96380.16;127909;1093;22823;-84
2021/07/15 05:29:00;;;;;;;10.33;5.70;;;;;;;20.20;83.20;96384.77;127840;1093;26837;-84
2021/07/15 05:31:31;;;;;;;8.68;5.13;;;;;;;20.21;83.39;96387.10;127893;1093;22748;-87
2021/07/15 05:34:03;;;;;;;9.95;5.58;;;;;;;20.25;83.47;96387.19;127921;1093;22808;-85
2021/07/15 05:36:35;;;;;;;8.78;5.50;;;;;;;20.38;83.64;96375.22;127887;1093;26268;-86
2021/07/15 05:39:06;;;;;;;11.13;5.35;;;;;;;20.53;84.14;96374.47;127909;1093;22810;-86
2021/07/15 05:41:38;;;;;;;11.00;6.50;;;;;;;20.71;83.97;96389.16;127885;1093;22800;-86
2021/07/15 05:44:11;;;;;;;8.78;5.68;;;;;;;20.98;83.72;96390.18;127927;1093;27319;-85
2021/07/15 05:46:42;;;;;;;7.48;4.90;;;;;;;21.19;83.19;96407.95;127879;1093;22813;-86
2021/07/15 05:49:13;;;;;;;7.90;5.65;;;;;;;21.23;82.18;96401.50;127891;1093;25463;-86
2021/07/15 05:51:48;;;;;;;9.75;5.15;;;;;;;21.25;81.02;96401.95;127905;1092;24432;-86
2021/07/15 05:54:20;;;;;;;9.03;5.53;;;;;;;21.37;81.89;96403.75;127935;1093;22796;-85
2021/07/15 05:56:51;;;;;;;8.65;5.15;;;;;;;21.52;82.16;96407.53;127916;1093;22826;-85
2021/07/15 05:59:23;;;;;;;7.70;5.33;;;;;;;21.57;81.38;96393.78;127912;1093;23639;-85
2021/07/15 06:01:54;;;;;;;10.40;5.28;;;;;;;21.63;81.20;96408.54;127950;1093;25980;-86
2021/07/15 06:04:25;;;;;;;10.93;5.20;;;;;;;21.64;81.32;96407.41;127960;1093;23119;-87
2021/07/15 06:06:57;;;;;;;8.35;6.08;;;;;;;21.68;81.40;96410.98;127948;1093;23195;-87
2021/07/15 06:09:28;;;;;;;7.35;5.23;;;;;;;21.68;81.25;96404.77;127898;1093;22819;-84
2021/07/15 06:11:59;;;;;;;11.28;5.45;;;;;;;21.64;81.32;96396.61;127911;1093;22801;-84
2021/07/15 06:14:31;;;;;;;7.45;5.20;;;;;;;21.79;81.74;96382.27;127920;1093;22819;-84
2021/07/15 06:17:03;;;;;;;8.63;4.97;;;;;;;22.02;82.57;96373.45;127940;1093;22792;-84
2021/07/15 06:19:35;;;;;;;8.18;5.00;;;;;;;22.26;82.96;96377.77;127936;1093;32713;-85
2021/07/15 06:22:06;;;;;;;10.08;5.03;;;;;;;22.39;81.42;96360.25;128047;1093;23261;-84
2021/07/15 06:24:38;;;;;;;9.58;5.50;;;;;;;22.41;80.37;96357.97;128063;1093;23125;-86
2021/07/15 06:27:09;;;;;;;9.35;5.28;;;;;;;22.34;80.24;96372.12;128013;1092;22826;-84
2021/07/15 06:29:41;;;;;;;9.73;6.10;;;;;;;22.40;80.92;96381.50;127893;1093;24395;-88
2021/07/15 06:32:12;;;;;;;11.75;5.65;;;;;;;22.48;80.33;96375.06;127873;1093;22822;-86
2021/07/15 06:34:43;;;;;;;9.67;5.43;;;;;;;22.68;80.59;96369.60;128031;1093;22796;-87
2021/07/15 06:37:15;;;;;;;10.83;5.08;;;;;;;22.87;80.74;96379.56;127930;1093;22851;-86
2021/07/15 06:39:46;;;;;;;12.43;6.75;;;;;;;23.04;80.00;96374.41;127909;1093;22796;-85
2021/07/15 06:42:18;;;;;;;10.38;5.80;;;;;;;23.08;78.61;96369.05;127904;1093;23700;-87
2021/07/15 06:44:49;;;;;;;10.30;5.13;;;;;;;23.05;78.52;96364.38;127938;1093;22790;-86
2021/07/15 06:47:21;;;;;;;11.15;5.40;;;;;;;23.00;77.29;96376.30;127927;1092;22822;-86
2021/07/15 06:49:53;;;;;;;10.15;5.60;;;;;;;22.85;76.58;96382.64;127893;1093;22786;-88
2021/07/15 06:52:29;;;;;;;9.40;6.05;;;;;;;22.59;76.40;96387.97;127951;1093;22827;-91
2021/07/15 06:55:02;;;;;;;10.95;5.50;;;;;;;22.48;77.41;96398.59;127643;1093;260731;-85
2021/07/15 06:57:35;;;;;;;9.03;5.37;;;;;;;22.35;77.33;96424.22;127985;1093;22816;-85
2021/07/15 07:00:11;;;;;;;11.23;5.15;;;;;;;22.23;77.96;96449.46;127931;1093;22813;-85
2021/07/15 07:02:44;;;;;;;8.70;5.50;;;;;;;21.92;78.49;96472.75;127920;1093;22783;-85
2021/07/15 07:05:17;;;;;;;11.45;6.00;;;;;;;21.53;78.33;96479.23;127909;1093;22848;-85
2021/07/15 07:07:49;;;;;;;7.10;4.25;;;;;;;21.18;76.05;96471.88;127906;1093;22809;-86
2021/07/15 07:10:20;;;;;;;7.70;4.50;;;;;;;20.94;75.64;96482.84;127903;1093;23557;-84
2021/07/15 07:12:52;;;;;;;6.63;4.15;;;;;;;20.72;76.39;96474.23;127877;1093;24384;-84
2021/07/15 07:15:23;;;;;;;5.75;4.15;;;;;;;20.55;76.96;96477.27;126253;1093;1746773;-86
2021/07/15 07:17:55;;;;;;;8.33;4.63;;;;;;;20.48;77.32;96482.45;127918;1093;26009;-85
2021/07/15 07:20:26;;;;;;;6.93;4.00;;;;;;;20.32;78.24;96468.16;127735;1093;22816;-90
2021/07/15 07:22:58;;;;;;;6.85;3.88;;;;;;;20.19;78.36;96485.48;127901;1093;22788;-86
2021/07/15 07:25:30;;;;;;;7.90;4.15;;;;;;;20.14;78.61;96505.36;127850;1093;22790;-86
2021/07/15 07:28:02;;;;;;;4.33;3.60;;;;;;;20.18;79.19;96502.77;127814;1093;22822;-86
2021/07/15 07:30:34;;;;;;;6.80;3.83;;;;;;;20.06;79.38;96509.75;127852;1093;22845;-88
2021/07/15 07:33:07;;;;;;;8.48;3.95;;;;;;;19.96;79.63;96518.30;127962;1093;25141;-86
2021/07/15 07:35:40;;;;;;;4.73;3.60;;;;;;;19.96;80.03;96517.51;127931;1093;22794;-85
2021/07/15 07:38:16;;;;;;;5.60;3.70;;;;;;;19.86;80.46;96526.86;127914;1093;25697;-88
2021/07/15 07:40:49;;;;;;;8.65;3.55;;;;;;;19.81;80.58;96551.28;127880;1093;24428;-87
2021/07/15 07:43:23;;;;;;;5.20;3.28;;;;;;;19.84;80.84;96545.22;127857;1092;23263;-87
2021/07/15 07:46:00;;;;;;;7.33;4.28;;;;;;;19.67;81.50;96566.99;128128;1093;22790;-88
2021/07/15 07:48:32;;;;;;;5.30;3.48;;;;;;;19.48;82.42;96567.54;127740;1093;24879;-88
2021/07/15 07:51:05;;;;;;;5.53;3.83;;;;;;;19.36;82.82;96540.65;127851;1092;33578;-90
2021/07/15 07:53:37;;;;;;;8.35;3.48;;;;;;;19.34;82.93;96530.23;127976;1093;24379;-88
2021/07/15 07:56:09;;;;;;;4.57;3.37;;;;;;;19.48;82.95;96506.48;127883;1093;22777;-87
2021/07/15 07:58:41;;;;;;;6.35;3.78;;;;;;;19.65;83.01;96483.96;127871;1093;22951;-92
2021/07/15 08:01:13;;;;;;;5.93;3.95;;;;;;;19.58;82.28;96489.14;127863;1093;27489;-87
2021/07/15 08:03:45;;;;;;;8.45;4.18;;;;;;;19.40;82.59;96485.86;127872;1093;22961;-86
2021/07/15 08:06:18;;;;;;;6.25;3.50;;;;;;;19.34;83.44;96471.09;127885;1093;22848;-86
2021/07/15 08:08:51;;;;;;;7.37;3.97;;;;;;;19.41;83.58;96467.83;127865;1092;22823;-90
2021/07/15 08:26:22;;;;;;;5.73;3.78;;;;;;;20.29;82.70;96452.70;127693;1093;23724;-88
2021/07/15 08:28:53;;;;;;;4.50;3.40;;;;;;;20.23;82.56;96464.82;127449;1093;22877;-89
2021/07/15 08:31:27;;;;;;;7.00;3.43;;;;;;;20.23;82.44;96478.28;127437;1093;23739;-92
2021/07/15 08:33:59;;;;;;;8.55;4.58;;;;;;;20.10;82.21;96478.33;127495;1093;22803;-89
2021/07/15 08:36:31;;;;;;;9.48;4.60;;;;;;;20.02;82.93;96471.20;127396;1093;30975;-87
2021/07/15 08:39:04;;;;;;;7.85;3.63;;;;;;;20.10;83.58;96489.09;127415;1093;33267;-89
2021/07/15 08:41:36;;;;;;;6.43;4.37;;;;;;;20.16;82.91;96500.42;127476;1093;23522;-88
2021/07/15 08:44:08;;;;;;;9.07;4.30;;;;;;;20.22;83.54;96495.56;127508;1093;42865;-89
2021/07/15 08:46:43;;;;;;;6.48;3.95;;;;;;;20.45;84.27;96483.16;127474;1093;22843;-86
2021/07/15 08:49:16;;;;;;;6.70;4.13;;;;;;;20.64;84.26;96479.78;127440;1093;26623;-87
2021/07/15 08:51:49;;;;;;;9.88;4.80;;;;;;;20.76;83.92;96477.02;127389;1093;36824;-88
2021/07/15 08:54:28;;;;;;;7.50;4.60;;;;;;;20.80;83.49;96482.48;127470;1093;27046;-93
2021/07/15 08:57:00;;;;;;;8.15;4.30;;;;;;;20.79;83.22;96497.09;127395;1094;23374;-88
2021/07/15 08:59:32;;;;;;;7.80;4.73;;;;;;;20.53;83.01;96511.82;127412;1093;25255;-91
2021/07/15 09:02:05;;;;;;;6.45;4.70;;;;;;;20.46;83.82;96517.03;127433;1092;28444;-89
2021/07/15 09:04:37;;;;;;;6.15;4.40;;;;;;;20.61;84.62;96485.87;127467;1093;25395;-87
2021/07/15 09:07:08;;;;;;;7.03;4.33;;;;;;;20.67;84.45;96485.25;127882;1093;26059;-89
2021/07/15 09:09:41;;;;;;;8.60;4.90;;;;;;;20.70;84.09;96516.13;127868;1092;22799;-88
2021/07/15 09:12:13;;;;;;;8.23;5.28;;;;;;;20.54;83.49;96526.84;127873;1093;24638;-86
2021/07/15 09:14:49;;;;;;;8.40;5.00;;;;;;;20.51;84.28;96480.98;127866;1093;23332;-87
2021/07/15 09:17:30;;;;;;;7.38;4.85;;;;;;;20.52;84.06;96499.48;127828;1093;57618;-89
2021/07/15 09:20:02;;;;;;;8.40;4.78;;;;;;;20.52;84.47;96494.09;127830;1093;26314;-89
2021/07/15 09:22:33;;;;;;;7.13;4.68;;;;;;;20.54;84.32;96486.45;127871;1092;24555;-90
2021/07/15 09:25:06;;;;;;;6.08;4.70;;;;;;;20.56;84.50;96481.52;127809;1093;25486;-87
2021/07/15 09:27:48;;;;;;;8.25;5.10;;;;;;;20.58;84.48;96484.66;127905;1093;22972;-89
2021/07/15 09:30:20;;;;;;;9.03;4.90;;;;;;;20.69;84.79;96507.27;128015;1092;26271;-87
2021/07/15 09:33:01;;;;;;;8.50;5.63;;;;;;;20.71;84.49;96485.37;127976;1092;37328;-87
2021/07/15 09:35:34;;;;;;;8.45;5.38;;;;;;;20.73;84.58;96494.66;127960;1093;24449;-88
2021/07/15 09:38:15;;;;;;;8.85;5.68;;;;;;;20.79;84.45;96505.95;127972;1093;22786;-86
2021/07/15 09:40:50;;;;;;;10.25;5.83;;;;;;;20.83;84.78;96484.48;127847;1092;22813;-86
2021/07/15 09:43:24;;;;;;;10.68;6.63;;;;;;;20.87;84.53;96482.68;127802;1093;23013;-86
2021/07/15 09:45:58;;;;;;;8.10;6.48;;;;;;;21.02;84.87;96482.67;127988;1092;22787;-86
2021/07/15 09:48:32;;;;;;;10.33;6.30;;;;;;;21.16;85.05;96482.23;127912;1091;23669;-87
2021/07/15 09:51:08;;;;;;;9.05;6.60;;;;;;;21.24;84.55;96492.03;127937;1093;23896;-84
2021/07/15 09:53:41;;;;;;;11.93;6.13;;;;;;;21.48;85.29;96484.91;128019;1093;22790;-86
2021/07/15 09:56:16;;;;;;;9.55;6.08;;;;;;;21.74;85.47;96477.00;127959;1093;23997;-85
2021/07/15 09:58:50;;;;;;;11.03;5.77;;;;;;;21.86;84.83;96484.98;127967;1093;22846;-86
2021/07/15 10:01:24;;;;;;;8.70;6.17;;;;;;;21.91;84.75;96487.38;127955;1093;22825;-86
2021/07/15 10:04:03;;;;;;;10.15;6.80;;;;;;;21.97;84.79;96466.30;127905;1093;22771;-85
2021/07/15 10:06:47;;;;;;;10.78;6.68;;;;;;;22.16;84.97;96457.44;127946;1093;22770;-87
2021/07/15 10:09:27;;;;;;;9.05;7.05;;;;;;;22.32;84.59;96439.22;127897;1093;22793;-86
2021/07/15 10:12:00;;;;;;;11.13;6.98;;;;;;;22.50;84.91;96429.51;128172;1093;22824;-87
2021/07/15 10:14:37;;;;;;;10.95;6.88;;;;;;;22.62;84.68;96425.86;128086;1092;22826;-87
2021/07/15 10:17:09;;;;;;;9.40;7.23;;;;;;;22.58;83.82;96425.02;128264;1092;29633;-86
2021/07/15 10:19:40;;;;;;;12.18;7.30;;;;;;;22.63;84.00;96429.34;128105;1092;25133;-87
2021/07/15 10:22:14;;;;;;;9.68;6.30;;;;;;;22.69;83.49;96420.58;127994;1092;26270;-88
2021/07/15 10:24:46;;;;;;;13.70;7.08;;;;;;;22.75;83.29;96421.83;128056;1093;22762;-87
2021/07/15 10:27:18;;;;;;;12.78;7.00;;;;;;;22.87;83.70;96429.00;127844;1093;26900;-88
2021/07/15 10:29:50;;;;;;;12.05;6.65;;;;;;;23.01;82.90;96434.63;128143;1092;23239;-86
2021/07/15 10:32:23;;;;;;;11.43;6.53;;;;;;;23.14;82.50;96429.03;127925;1093;22787;-91
2021/07/15 10:34:56;;;;;;;13.13;6.78;;;;;;;23.37;82.50;96432.47;127954;1093;23533;-87
2021/07/15 10:37:28;;;;;;;10.08;6.35;;;;;;;23.74;82.28;96439.93;127800;1093;26308;-88
2021/07/15 10:40:02;;;;;;;10.30;6.63;;;;;;;23.94;81.50;96441.36;127997;1093;22813;-89
2021/07/15 10:42:34;;;;;;;12.13;6.85;;;;;;;23.93;80.65;96431.68;127866;1093;23299;-91
2021/07/15 10:45:06;;;;;;;14.55;7.90;;;;;;;23.96;79.90;96434.42;127898;1093;24428;-88
2021/07/15 10:47:39;;;;;;;12.93;7.08;;;;;;;23.87;79.09;96420.38;127909;1093;22762;-88
2021/07/15 10:50:12;;;;;;;10.28;7.38;;;;;;;23.75;79.51;96417.91;127845;1093;39573;-86
2021/07/15 10:52:46;;;;;;;15.88;7.85;;;;;;;23.71;79.73;96411.67;127916;1093;27154;-88
2021/07/15 10:55:20;;;;;;;10.25;6.93;;;;;;;23.69;79.78;96405.86;127920;1093;23707;-87
2021/07/15 10:57:53;;;;;;;13.90;7.50;;;;;;;23.71;79.80;96406.27;127861;1093;22796;-90
2021/07/15 11:00:29;;;;;;;12.30;7.43;;;;;;;23.70;79.76;96426.36;127872;1093;25791;-88
2021/07/15 11:03:26;;;;;;;12.33;6.60;;;;;;;23.52;79.10;96425.33;127826;1093;31305;-89
2021/07/15 11:06:00;;;;;;;10.78;7.08;;;;;;;23.45;79.08;96431.41;127885;1093;22979;-88
2021/07/15 11:09:00;;;;;;;10.80;7.28;;;;;;;23.46;79.48;96432.97;127889;1092;22786;-90
2021/07/15 11:11:43;;;;;;;12.70;7.30;;;;;;;23.51;79.48;96435.38;127894;1092;24526;-93
2021/07/15 11:14:41;;;;;;;12.73;7.30;;;;;;;23.55;79.34;96435.41;127870;1093;22813;-88
2021/07/15 11:17:33;;;;;;;11.25;7.28;;;;;;;23.63;79.57;96429.73;127931;1093;22819;-87
2021/07/15 11:20:11;;;;;;;11.98;7.25;;;;;;;23.55;79.36;96438.13;127812;1093;42142;-87
2021/07/15 11:22:54;;;;;;;12.40;7.58;;;;;;;23.44;78.67;96437.19;127883;1093;24027;-86
2021/07/15 11:25:41;;;;;;;12.35;7.38;;;;;;;23.59;78.94;96439.75;127884;1093;22770;-87
2021/07/15 11:28:24;;;;;;;10.43;7.13;;;;;;;23.86;78.98;96437.00;127937;1093;22816;-86
2021/07/15 11:30:59;;;;;;;12.83;8.15;;;;;;;23.95;78.26;96427.45;127859;1093;51837;-88
2021/07/15 11:33:49;;;;;;;11.00;7.73;;;;;;;23.91;78.72;96417.70;127900;1092;27277;-87
2021/07/15 11:36:30;;;;;;;12.20;8.23;;;;;;;23.89;78.03;96420.78;127950;1093;22783;-85
2021/07/15 11:39:05;;;;;;;11.65;7.90;;;;;;;24.04;78.97;96420.95;127903;1093;23908;-84
2021/07/15 11:41:48;;;;;;;10.80;8.40;;;;;;;24.19;77.87;96417.25;127942;1093;22792;-87
2021/07/15 11:44:20;;;;;;;12.30;8.28;;;;;;;24.34;78.94;96429.03;127879;1093;24424;-88
2021/07/15 11:46:52;;;;;;;12.20;8.23;;;;;;;24.62;77.91;96429.31;127852;1092;22775;-90
2021/07/15 11:49:25;;;;;;;9.28;6.83;;;;;;;24.64;77.29;96426.25;127854;1093;23215;-93
2021/07/15 11:52:05;;;;;;;13.23;8.35;;;;;;;24.32;76.55;96401.54;127893;1093;22969;-92
2021/07/15 11:54:45;;;;;;;13.98;8.78;;;;;;;24.43;77.01;96386.17;127925;1093;22861;-89
2021/07/15 11:57:30;;;;;;;12.90;8.10;;;;;;;24.69;77.50;96393.37;127881;1093;22789;-89
2021/07/15 12:00:21;;;;;;;13.03;7.75;;;;;;;25.14;77.99;96395.66;127920;1092;22827;-89
2021/07/15 12:03:00;;;;;;;10.25;7.48;;;;;;;25.55;77.73;96389.30;127876;1093;22792;-91
2021/07/15 12:05:34;;;;;;;11.68;7.58;;;;;;;25.75;76.65;96379.71;127906;1093;25537;-89
2021/07/15 12:08:14;;;;;;;15.75;8.93;;;;;;;25.43;74.30;96376.83;127864;1093;25897;-90
2021/07/15 12:10:48;;;;;;;12.28;8.30;;;;;;;25.15;75.16;96372.80;127851;1093;22787;-88
2021/07/15 12:13:20;;;;;;;12.20;8.30;;;;;;;25.29;75.33;96372.11;127906;1092;22740;-89